PHP Weather

Conditions Météo Internationales

Rapport météo courant pour Montreal / Dorval International, Que, Canada:

Voici le bulletin pour Montreal / Dorval International, Que, Canada. Le bulletin a été fait il y a 11 heures et 51 minutes , à 15:00 UTC. Le vent soufflait à la vitesse de 3.1 mètres par seconde (6.9 miles par heure) de Est (080°). La température était de 18 °C (64 °F), avec un point de rosée à 17 °C (63 °F). La pression atmosphérique était de 1007 hPa (29.74 inHg). L'humidité relative était de 93.9%. Il y avait 5 à 7/8è de nébulosité à une hauteur de 183 mètres (600 pieds). Le ciel était nuageux à partir d'une hauteur de 488 mètres (1600 pieds) La visibilité globale était de 9.7 kilomètres (6.0 miles). Actuellement brume.

Code METAR : CYUL 181500Z 08006KT 6SM BR BKN006 OVC016 18/17 A2974 RMK ST7SC1 SLP073 DENSITY ALT 800FT